sensor_id;sensor_type;location;lat;lon;timestamp;P1;durP1;ratioP1;P2;durP2;ratioP2
65206;SDS011;58477;48.072;11.970;2024-02-14T00:00:57;4.25;;;2.85;;
65206;SDS011;58477;48.072;11.970;2024-02-14T00:03:23;8.82;;;2.88;;
65206;SDS011;58477;48.072;11.970;2024-02-14T00:05:49;3.38;;;2.65;;
65206;SDS011;58477;48.072;11.970;2024-02-14T00:08:14;7.75;;;2.60;;
65206;SDS011;58477;48.072;11.970;2024-02-14T00:10:40;4.75;;;2.50;;
65206;SDS011;58477;48.072;11.970;2024-02-14T00:13:05;4.90;;;2.88;;
65206;SDS011;58477;48.072;11.970;2024-02-14T00:15:31;4.35;;;2.90;;
65206;SDS011;58477;48.072;11.970;2024-02-14T00:17:56;4.50;;;3.30;;
65206;SDS011;58477;48.072;11.970;2024-02-14T00:20:21;4.75;;;2.78;;
65206;SDS011;58477;48.072;11.970;2024-02-14T00:22:47;3.38;;;2.85;;
65206;SDS011;58477;48.072;11.970;2024-02-14T00:25:12;4.55;;;3.10;;
65206;SDS011;58477;48.072;11.970;2024-02-14T00:27:38;3.13;;;2.75;;
65206;SDS011;58477;48.072;11.970;2024-02-14T00:30:04;3.65;;;2.50;;
65206;SDS011;58477;48.072;11.970;2024-02-14T00:32:30;6.13;;;2.50;;
65206;SDS011;58477;48.072;11.970;2024-02-14T00:34:56;4.47;;;3.03;;
65206;SDS011;58477;48.072;11.970;2024-02-14T00:37:21;2.63;;;2.42;;
65206;SDS011;58477;48.072;11.970;2024-02-14T00:39:47;5.50;;;2.72;;
65206;SDS011;58477;48.072;11.970;2024-02-14T00:42:15;6.03;;;3.08;;
65206;SDS011;58477;48.072;11.970;2024-02-14T00:44:40;5.93;;;2.72;;
65206;SDS011;58477;48.072;11.970;2024-02-14T00:47:05;11.30;;;3.38;;
65206;SDS011;58477;48.072;11.970;2024-02-14T00:49:34;5.70;;;3.03;;
65206;SDS011;58477;48.072;11.970;2024-02-14T00:51:59;4.97;;;3.03;;
65206;SDS011;58477;48.072;11.970;2024-02-14T00:54:25;5.95;;;3.40;;
65206;SDS011;58477;48.072;11.970;2024-02-14T00:56:50;6.43;;;3.20;;
65206;SDS011;58477;48.072;11.970;2024-02-14T00:59:16;9.85;;;2.97;;
65206;SDS011;58477;48.072;11.970;2024-02-14T01:01:41;3.17;;;2.65;;
65206;SDS011;58477;48.072;11.970;2024-02-14T01:04:07;7.28;;;3.80;;
65206;SDS011;58477;48.072;11.970;2024-02-14T01:06:32;5.22;;;3.60;;
65206;SDS011;58477;48.072;11.970;2024-02-14T01:08:58;4.03;;;3.38;;
65206;SDS011;58477;48.072;11.970;2024-02-14T01:11:23;4.82;;;3.50;;
65206;SDS011;58477;48.072;11.970;2024-02-14T01:13:49;3.28;;;2.72;;
65206;SDS011;58477;48.072;11.970;2024-02-14T01:16:14;4.97;;;3.25;;
65206;SDS011;58477;48.072;11.970;2024-02-14T01:18:39;4.43;;;3.50;;
65206;SDS011;58477;48.072;11.970;2024-02-14T01:21:05;5.10;;;3.30;;
65206;SDS011;58477;48.072;11.970;2024-02-14T01:23:31;5.78;;;3.70;;
65206;SDS011;58477;48.072;11.970;2024-02-14T01:25:56;7.57;;;3.72;;
65206;SDS011;58477;48.072;11.970;2024-02-14T01:28:21;10.38;;;3.25;;
65206;SDS011;58477;48.072;11.970;2024-02-14T01:30:47;4.03;;;3.10;;
65206;SDS011;58477;48.072;11.970;2024-02-14T01:33:12;4.10;;;2.75;;
65206;SDS011;58477;48.072;11.970;2024-02-14T01:35:37;6.68;;;3.15;;
65206;SDS011;58477;48.072;11.970;2024-02-14T01:38:03;5.35;;;3.55;;
65206;SDS011;58477;48.072;11.970;2024-02-14T01:40:29;3.83;;;2.55;;
65206;SDS011;58477;48.072;11.970;2024-02-14T01:42:54;5.00;;;2.80;;
65206;SDS011;58477;48.072;11.970;2024-02-14T01:45:20;3.15;;;2.10;;
65206;SDS011;58477;48.072;11.970;2024-02-14T01:47:46;4.10;;;2.38;;
65206;SDS011;58477;48.072;11.970;2024-02-14T01:50:12;5.38;;;2.58;;
65206;SDS011;58477;48.072;11.970;2024-02-14T01:52:38;4.20;;;2.10;;
65206;SDS011;58477;48.072;11.970;2024-02-14T01:55:05;5.20;;;2.33;;
65206;SDS011;58477;48.072;11.970;2024-02-14T01:57:33;3.42;;;2.22;;
65206;SDS011;58477;48.072;11.970;2024-02-14T01:59:59;5.20;;;2.28;;
65206;SDS011;58477;48.072;11.970;2024-02-14T02:02:37;2.90;;;2.10;;
65206;SDS011;58477;48.072;11.970;2024-02-14T02:05:08;5.70;;;2.95;;
65206;SDS011;58477;48.072;11.970;2024-02-14T02:07:34;2.40;;;2.20;;
65206;SDS011;58477;48.072;11.970;2024-02-14T02:10:01;5.07;;;2.47;;
65206;SDS011;58477;48.072;11.970;2024-02-14T02:12:27;4.75;;;2.53;;
65206;SDS011;58477;48.072;11.970;2024-02-14T02:14:53;2.92;;;2.40;;
65206;SDS011;58477;48.072;11.970;2024-02-14T02:17:19;4.72;;;2.42;;
65206;SDS011;58477;48.072;11.970;2024-02-14T02:19:44;3.28;;;2.80;;
65206;SDS011;58477;48.072;11.970;2024-02-14T02:22:09;8.45;;;2.47;;
65206;SDS011;58477;48.072;11.970;2024-02-14T02:24:35;3.20;;;2.90;;
65206;SDS011;58477;48.072;11.970;2024-02-14T02:27:01;5.90;;;3.10;;
65206;SDS011;58477;48.072;11.970;2024-02-14T02:29:27;3.28;;;2.45;;
65206;SDS011;58477;48.072;11.970;2024-02-14T02:31:52;3.83;;;2.40;;
65206;SDS011;58477;48.072;11.970;2024-02-14T02:34:18;6.00;;;2.83;;
65206;SDS011;58477;48.072;11.970;2024-02-14T02:36:43;3.20;;;2.20;;
65206;SDS011;58477;48.072;11.970;2024-02-14T02:39:11;3.80;;;2.28;;
65206;SDS011;58477;48.072;11.970;2024-02-14T02:41:37;4.47;;;2.83;;
65206;SDS011;58477;48.072;11.970;2024-02-14T02:44:02;10.02;;;2.80;;
65206;SDS011;58477;48.072;11.970;2024-02-14T02:46:31;2.50;;;2.30;;
65206;SDS011;58477;48.072;11.970;2024-02-14T02:48:57;3.25;;;2.42;;
65206;SDS011;58477;48.072;11.970;2024-02-14T02:51:23;4.78;;;2.90;;
65206;SDS011;58477;48.072;11.970;2024-02-14T02:53:49;4.68;;;2.80;;
65206;SDS011;58477;48.072;11.970;2024-02-14T02:56:14;4.82;;;2.20;;
65206;SDS011;58477;48.072;11.970;2024-02-14T02:58:40;4.15;;;2.67;;
65206;SDS011;58477;48.072;11.970;2024-02-14T03:01:09;4.00;;;2.95;;
65206;SDS011;58477;48.072;11.970;2024-02-14T03:03:34;5.32;;;2.38;;
65206;SDS011;58477;48.072;11.970;2024-02-14T03:06:01;5.75;;;2.63;;
65206;SDS011;58477;48.072;11.970;2024-02-14T03:08:28;4.53;;;3.20;;
65206;SDS011;58477;48.072;11.970;2024-02-14T03:10:55;4.90;;;2.95;;
65206;SDS011;58477;48.072;11.970;2024-02-14T03:13:24;3.90;;;2.90;;
65206;SDS011;58477;48.072;11.970;2024-02-14T03:15:51;6.78;;;2.85;;
65206;SDS011;58477;48.072;11.970;2024-02-14T03:18:17;5.05;;;3.00;;
65206;SDS011;58477;48.072;11.970;2024-02-14T03:20:42;5.03;;;2.78;;
65206;SDS011;58477;48.072;11.970;2024-02-14T03:23:08;9.77;;;3.22;;
65206;SDS011;58477;48.072;11.970;2024-02-14T03:25:33;2.50;;;2.30;;
65206;SDS011;58477;48.072;11.970;2024-02-14T03:28:02;2.85;;;2.47;;
65206;SDS011;58477;48.072;11.970;2024-02-14T03:30:33;4.60;;;2.47;;
65206;SDS011;58477;48.072;11.970;2024-02-14T03:33:04;3.35;;;2.25;;
65206;SDS011;58477;48.072;11.970;2024-02-14T03:35:30;3.15;;;2.50;;
65206;SDS011;58477;48.072;11.970;2024-02-14T03:37:55;2.85;;;2.25;;
65206;SDS011;58477;48.072;11.970;2024-02-14T03:40:21;6.43;;;2.03;;
65206;SDS011;58477;48.072;11.970;2024-02-14T03:42:47;7.57;;;2.17;;
65206;SDS011;58477;48.072;11.970;2024-02-14T03:45:13;2.47;;;2.28;;
65206;SDS011;58477;48.072;11.970;2024-02-14T03:47:39;4.15;;;2.30;;
65206;SDS011;58477;48.072;11.970;2024-02-14T03:50:05;3.38;;;2.83;;
65206;SDS011;58477;48.072;11.970;2024-02-14T03:52:32;2.92;;;2.08;;
65206;SDS011;58477;48.072;11.970;2024-02-14T03:54:57;2.13;;;1.92;;
65206;SDS011;58477;48.072;11.970;2024-02-14T03:57:24;2.80;;;1.92;;
65206;SDS011;58477;48.072;11.970;2024-02-14T03:59:50;2.63;;;2.13;;
65206;SDS011;58477;48.072;11.970;2024-02-14T04:02:16;2.22;;;2.00;;
65206;SDS011;58477;48.072;11.970;2024-02-14T04:04:41;4.32;;;1.92;;
65206;SDS011;58477;48.072;11.970;2024-02-14T04:07:08;2.47;;;1.98;;
65206;SDS011;58477;48.072;11.970;2024-02-14T04:09:34;2.72;;;2.15;;
65206;SDS011;58477;48.072;11.970;2024-02-14T04:12:00;2.08;;;1.88;;
65206;SDS011;58477;48.072;11.970;2024-02-14T04:14:26;3.90;;;1.90;;
65206;SDS011;58477;48.072;11.970;2024-02-14T04:16:51;2.63;;;2.10;;
65206;SDS011;58477;48.072;11.970;2024-02-14T04:19:16;4.35;;;1.40;;
65206;SDS011;58477;48.072;11.970;2024-02-14T04:21:42;7.10;;;2.03;;
65206;SDS011;58477;48.072;11.970;2024-02-14T04:24:08;5.07;;;2.20;;
65206;SDS011;58477;48.072;11.970;2024-02-14T04:26:33;5.97;;;1.83;;
65206;SDS011;58477;48.072;11.970;2024-02-14T04:28:59;7.25;;;1.83;;
65206;SDS011;58477;48.072;11.970;2024-02-14T04:31:25;2.83;;;1.95;;
65206;SDS011;58477;48.072;11.970;2024-02-14T04:33:51;3.97;;;2.00;;
65206;SDS011;58477;48.072;11.970;2024-02-14T04:36:18;5.43;;;1.90;;
65206;SDS011;58477;48.072;11.970;2024-02-14T04:38:45;2.15;;;1.73;;
65206;SDS011;58477;48.072;11.970;2024-02-14T04:41:12;2.00;;;1.80;;
65206;SDS011;58477;48.072;11.970;2024-02-14T04:43:37;3.28;;;1.95;;
65206;SDS011;58477;48.072;11.970;2024-02-14T04:46:03;3.95;;;1.85;;
65206;SDS011;58477;48.072;11.970;2024-02-14T04:48:32;2.60;;;1.60;;
65206;SDS011;58477;48.072;11.970;2024-02-14T04:50:57;2.28;;;1.50;;
65206;SDS011;58477;48.072;11.970;2024-02-14T04:53:23;1.63;;;1.52;;
65206;SDS011;58477;48.072;11.970;2024-02-14T04:55:48;5.22;;;2.22;;
65206;SDS011;58477;48.072;11.970;2024-02-14T04:58:14;2.50;;;1.67;;
65206;SDS011;58477;48.072;11.970;2024-02-14T05:00:39;1.80;;;1.65;;
65206;SDS011;58477;48.072;11.970;2024-02-14T05:03:05;6.18;;;2.58;;
65206;SDS011;58477;48.072;11.970;2024-02-14T05:05:31;1.95;;;1.60;;
65206;SDS011;58477;48.072;11.970;2024-02-14T05:07:58;1.80;;;1.67;;
65206;SDS011;58477;48.072;11.970;2024-02-14T05:10:24;1.90;;;1.60;;
65206;SDS011;58477;48.072;11.970;2024-02-14T05:12:49;3.30;;;1.63;;
65206;SDS011;58477;48.072;11.970;2024-02-14T05:15:15;2.00;;;1.80;;
65206;SDS011;58477;48.072;11.970;2024-02-14T05:17:41;2.63;;;1.80;;
65206;SDS011;58477;48.072;11.970;2024-02-14T05:20:08;9.43;;;2.10;;
65206;SDS011;58477;48.072;11.970;2024-02-14T05:22:35;2.30;;;1.85;;
65206;SDS011;58477;48.072;11.970;2024-02-14T05:25:02;3.17;;;2.10;;
65206;SDS011;58477;48.072;11.970;2024-02-14T05:27:27;2.05;;;1.58;;
65206;SDS011;58477;48.072;11.970;2024-02-14T05:29:53;6.15;;;2.20;;
65206;SDS011;58477;48.072;11.970;2024-02-14T05:32:18;2.40;;;1.65;;
65206;SDS011;58477;48.072;11.970;2024-02-14T05:34:43;2.67;;;2.00;;
65206;SDS011;58477;48.072;11.970;2024-02-14T05:37:09;2.67;;;2.10;;
65206;SDS011;58477;48.072;11.970;2024-02-14T05:39:34;1.63;;;1.52;;
65206;SDS011;58477;48.072;11.970;2024-02-14T05:42:00;2.90;;;1.83;;
65206;SDS011;58477;48.072;11.970;2024-02-14T05:44:25;3.75;;;1.95;;
65206;SDS011;58477;48.072;11.970;2024-02-14T05:46:52;3.03;;;1.95;;
65206;SDS011;58477;48.072;11.970;2024-02-14T05:49:18;1.95;;;1.77;;
65206;SDS011;58477;48.072;11.970;2024-02-14T05:51:43;2.63;;;1.98;;
65206;SDS011;58477;48.072;11.970;2024-02-14T05:54:09;3.70;;;2.00;;
65206;SDS011;58477;48.072;11.970;2024-02-14T05:56:34;1.70;;;1.50;;
65206;SDS011;58477;48.072;11.970;2024-02-14T05:59:00;1.80;;;1.60;;
65206;SDS011;58477;48.072;11.970;2024-02-14T06:01:25;2.22;;;1.88;;
65206;SDS011;58477;48.072;11.970;2024-02-14T06:03:50;2.20;;;1.90;;
65206;SDS011;58477;48.072;11.970;2024-02-14T06:06:16;2.75;;;2.22;;
65206;SDS011;58477;48.072;11.970;2024-02-14T06:08:41;3.55;;;2.05;;
65206;SDS011;58477;48.072;11.970;2024-02-14T06:11:07;2.85;;;2.10;;
65206;SDS011;58477;48.072;11.970;2024-02-14T06:13:33;2.67;;;2.03;;
65206;SDS011;58477;48.072;11.970;2024-02-14T06:15:58;2.22;;;1.83;;
65206;SDS011;58477;48.072;11.970;2024-02-14T06:18:24;3.80;;;2.40;;
65206;SDS011;58477;48.072;11.970;2024-02-14T06:20:49;3.08;;;1.73;;
65206;SDS011;58477;48.072;11.970;2024-02-14T06:23:15;2.50;;;2.03;;
65206;SDS011;58477;48.072;11.970;2024-02-14T06:25:40;2.20;;;2.00;;
65206;SDS011;58477;48.072;11.970;2024-02-14T06:28:06;1.77;;;1.45;;
65206;SDS011;58477;48.072;11.970;2024-02-14T06:30:31;2.08;;;1.75;;
65206;SDS011;58477;48.072;11.970;2024-02-14T06:32:57;2.60;;;2.17;;
65206;SDS011;58477;48.072;11.970;2024-02-14T06:35:25;1.85;;;1.70;;
65206;SDS011;58477;48.072;11.970;2024-02-14T06:37:51;3.25;;;1.88;;
65206;SDS011;58477;48.072;11.970;2024-02-14T06:40:16;3.30;;;1.60;;
65206;SDS011;58477;48.072;11.970;2024-02-14T06:42:42;3.33;;;1.67;;
65206;SDS011;58477;48.072;11.970;2024-02-14T06:45:08;1.45;;;1.30;;
65206;SDS011;58477;48.072;11.970;2024-02-14T06:47:34;1.48;;;1.38;;
65206;SDS011;58477;48.072;11.970;2024-02-14T06:49:59;1.60;;;1.50;;
65206;SDS011;58477;48.072;11.970;2024-02-14T06:52:24;2.75;;;1.60;;
65206;SDS011;58477;48.072;11.970;2024-02-14T06:54:50;2.08;;;1.52;;
65206;SDS011;58477;48.072;11.970;2024-02-14T06:57:15;1.40;;;1.30;;
65206;SDS011;58477;48.072;11.970;2024-02-14T06:59:41;3.42;;;1.55;;
65206;SDS011;58477;48.072;11.970;2024-02-14T07:02:07;3.13;;;1.80;;
65206;SDS011;58477;48.072;11.970;2024-02-14T07:04:33;3.38;;;1.35;;
65206;SDS011;58477;48.072;11.970;2024-02-14T07:06:58;1.48;;;1.27;;
65206;SDS011;58477;48.072;11.970;2024-02-14T07:09:23;2.55;;;1.63;;
65206;SDS011;58477;48.072;11.970;2024-02-14T07:11:50;2.50;;;1.48;;
65206;SDS011;58477;48.072;11.970;2024-02-14T07:14:18;2.25;;;1.60;;
65206;SDS011;58477;48.072;11.970;2024-02-14T07:16:44;1.40;;;1.30;;
65206;SDS011;58477;48.072;11.970;2024-02-14T07:19:10;1.90;;;1.70;;
65206;SDS011;58477;48.072;11.970;2024-02-14T07:21:35;3.28;;;1.75;;
65206;SDS011;58477;48.072;11.970;2024-02-14T07:24:03;8.88;;;1.95;;
65206;SDS011;58477;48.072;11.970;2024-02-14T07:26:30;6.78;;;2.60;;
65206;SDS011;58477;48.072;11.970;2024-02-14T07:28:56;3.08;;;2.40;;
65206;SDS011;58477;48.072;11.970;2024-02-14T07:31:21;6.25;;;2.33;;
65206;SDS011;58477;48.072;11.970;2024-02-14T07:33:47;1.95;;;1.67;;
65206;SDS011;58477;48.072;11.970;2024-02-14T07:36:13;7.72;;;1.92;;
65206;SDS011;58477;48.072;11.970;2024-02-14T07:38:39;2.80;;;1.95;;
65206;SDS011;58477;48.072;11.970;2024-02-14T07:41:04;4.53;;;2.08;;
65206;SDS011;58477;48.072;11.970;2024-02-14T07:43:30;3.80;;;2.40;;
65206;SDS011;58477;48.072;11.970;2024-02-14T07:45:55;3.42;;;1.88;;
65206;SDS011;58477;48.072;11.970;2024-02-14T07:48:21;7.63;;;2.67;;
65206;SDS011;58477;48.072;11.970;2024-02-14T07:50:47;5.70;;;2.33;;
65206;SDS011;58477;48.072;11.970;2024-02-14T07:53:13;2.45;;;2.20;;
65206;SDS011;58477;48.072;11.970;2024-02-14T07:55:38;2.53;;;2.13;;
65206;SDS011;58477;48.072;11.970;2024-02-14T07:58:05;2.28;;;1.83;;
65206;SDS011;58477;48.072;11.970;2024-02-14T08:00:30;2.03;;;1.50;;
65206;SDS011;58477;48.072;11.970;2024-02-14T08:02:56;2.03;;;1.58;;
65206;SDS011;58477;48.072;11.970;2024-02-14T08:05:21;1.60;;;1.50;;
65206;SDS011;58477;48.072;11.970;2024-02-14T08:07:47;1.67;;;1.50;;
65206;SDS011;58477;48.072;11.970;2024-02-14T08:10:13;4.15;;;1.67;;
65206;SDS011;58477;48.072;11.970;2024-02-14T08:12:38;2.72;;;1.63;;
65206;SDS011;58477;48.072;11.970;2024-02-14T08:15:04;2.20;;;1.80;;
65206;SDS011;58477;48.072;11.970;2024-02-14T08:17:32;3.60;;;3.13;;
65206;SDS011;58477;48.072;11.970;2024-02-14T08:19:58;2.30;;;2.05;;
65206;SDS011;58477;48.072;11.970;2024-02-14T08:22:24;9.00;;;1.95;;
65206;SDS011;58477;48.072;11.970;2024-02-14T08:24:49;2.15;;;1.50;;
65206;SDS011;58477;48.072;11.970;2024-02-14T08:27:15;2.60;;;1.42;;
65206;SDS011;58477;48.072;11.970;2024-02-14T08:29:40;1.30;;;1.20;;
65206;SDS011;58477;48.072;11.970;2024-02-14T08:32:05;3.80;;;1.67;;
65206;SDS011;58477;48.072;11.970;2024-02-14T08:34:31;2.95;;;1.77;;
65206;SDS011;58477;48.072;11.970;2024-02-14T08:36:56;2.08;;;1.83;;
65206;SDS011;58477;48.072;11.970;2024-02-14T08:39:22;3.38;;;2.10;;
65206;SDS011;58477;48.072;11.970;2024-02-14T08:41:47;2.55;;;2.33;;
65206;SDS011;58477;48.072;11.970;2024-02-14T08:44:13;3.63;;;2.28;;
65206;SDS011;58477;48.072;11.970;2024-02-14T08:46:38;4.72;;;2.33;;
65206;SDS011;58477;48.072;11.970;2024-02-14T08:49:07;7.82;;;2.42;;
65206;SDS011;58477;48.072;11.970;2024-02-14T08:51:37;3.42;;;2.25;;
65206;SDS011;58477;48.072;11.970;2024-02-14T08:54:06;3.28;;;2.25;;
65206;SDS011;58477;48.072;11.970;2024-02-14T08:56:31;4.13;;;2.80;;
65206;SDS011;58477;48.072;11.970;2024-02-14T08:59:01;5.30;;;2.58;;
65206;SDS011;58477;48.072;11.970;2024-02-14T09:01:30;3.63;;;2.38;;
65206;SDS011;58477;48.072;11.970;2024-02-14T09:03:56;4.25;;;2.50;;
65206;SDS011;58477;48.072;11.970;2024-02-14T09:06:22;3.58;;;2.05;;
65206;SDS011;58477;48.072;11.970;2024-02-14T09:08:48;2.15;;;1.88;;
65206;SDS011;58477;48.072;11.970;2024-02-14T09:11:15;4.22;;;2.28;;
65206;SDS011;58477;48.072;11.970;2024-02-14T09:13:41;6.38;;;2.20;;
65206;SDS011;58477;48.072;11.970;2024-02-14T09:16:07;2.90;;;2.03;;
65206;SDS011;58477;48.072;11.970;2024-02-14T09:18:33;4.75;;;1.88;;
65206;SDS011;58477;48.072;11.970;2024-02-14T09:21:00;2.58;;;1.65;;
65206;SDS011;58477;48.072;11.970;2024-02-14T09:23:26;10.57;;;2.40;;
65206;SDS011;58477;48.072;11.970;2024-02-14T09:25:52;1.90;;;1.70;;
65206;SDS011;58477;48.072;11.970;2024-02-14T09:28:17;2.33;;;1.30;;
65206;SDS011;58477;48.072;11.970;2024-02-14T09:30:43;1.50;;;1.40;;
65206;SDS011;58477;48.072;11.970;2024-02-14T09:33:11;1.45;;;1.30;;
65206;SDS011;58477;48.072;11.970;2024-02-14T09:35:37;4.70;;;2.08;;
65206;SDS011;58477;48.072;11.970;2024-02-14T09:38:04;2.33;;;1.90;;
65206;SDS011;58477;48.072;11.970;2024-02-14T09:40:30;3.20;;;1.83;;
65206;SDS011;58477;48.072;11.970;2024-02-14T09:42:56;4.20;;;1.95;;
65206;SDS011;58477;48.072;11.970;2024-02-14T09:45:26;2.47;;;1.67;;
65206;SDS011;58477;48.072;11.970;2024-02-14T09:47:55;2.05;;;1.77;;
65206;SDS011;58477;48.072;11.970;2024-02-14T09:50:22;3.50;;;1.80;;
65206;SDS011;58477;48.072;11.970;2024-02-14T09:52:49;2.47;;;1.60;;
65206;SDS011;58477;48.072;11.970;2024-02-14T09:55:15;6.63;;;1.88;;
65206;SDS011;58477;48.072;11.970;2024-02-14T09:57:41;3.72;;;1.70;;
65206;SDS011;58477;48.072;11.970;2024-02-14T10:00:11;3.30;;;1.98;;
65206;SDS011;58477;48.072;11.970;2024-02-14T10:02:39;3.60;;;2.03;;
65206;SDS011;58477;48.072;11.970;2024-02-14T10:05:05;5.75;;;2.25;;
65206;SDS011;58477;48.072;11.970;2024-02-14T10:07:39;3.45;;;2.38;;
65206;SDS011;58477;48.072;11.970;2024-02-14T10:10:06;3.42;;;2.30;;
65206;SDS011;58477;48.072;11.970;2024-02-14T10:12:32;2.50;;;2.30;;
65206;SDS011;58477;48.072;11.970;2024-02-14T10:14:57;3.38;;;2.20;;
65206;SDS011;58477;48.072;11.970;2024-02-14T10:17:23;3.50;;;1.90;;
65206;SDS011;58477;48.072;11.970;2024-02-14T10:19:57;1.70;;;1.60;;
65206;SDS011;58477;48.072;11.970;2024-02-14T10:22:24;2.33;;;1.90;;
65206;SDS011;58477;48.072;11.970;2024-02-14T10:24:50;6.18;;;1.70;;
65206;SDS011;58477;48.072;11.970;2024-02-14T10:27:16;1.55;;;1.42;;
65206;SDS011;58477;48.072;11.970;2024-02-14T10:29:41;2.05;;;1.55;;
65206;SDS011;58477;48.072;11.970;2024-02-14T10:32:08;3.05;;;1.73;;
65206;SDS011;58477;48.072;11.970;2024-02-14T10:34:34;2.72;;;1.30;;
65206;SDS011;58477;48.072;11.970;2024-02-14T10:37:02;2.15;;;1.45;;
65206;SDS011;58477;48.072;11.970;2024-02-14T10:39:30;2.17;;;1.33;;
65206;SDS011;58477;48.072;11.970;2024-02-14T10:41:56;2.90;;;1.50;;
65206;SDS011;58477;48.072;11.970;2024-02-14T10:44:22;3.65;;;1.77;;
65206;SDS011;58477;48.072;11.970;2024-02-14T10:46:48;2.63;;;1.40;;
65206;SDS011;58477;48.072;11.970;2024-02-14T10:49:16;1.48;;;1.27;;
65206;SDS011;58477;48.072;11.970;2024-02-14T10:51:44;1.75;;;1.30;;
65206;SDS011;58477;48.072;11.970;2024-02-14T10:54:14;1.60;;;1.50;;
65206;SDS011;58477;48.072;11.970;2024-02-14T10:56:42;2.40;;;1.63;;
65206;SDS011;58477;48.072;11.970;2024-02-14T10:59:11;1.83;;;1.60;;
65206;SDS011;58477;48.072;11.970;2024-02-14T11:01:40;2.20;;;1.45;;
65206;SDS011;58477;48.072;11.970;2024-02-14T11:04:07;2.03;;;1.60;;
65206;SDS011;58477;48.072;11.970;2024-02-14T11:06:43;4.72;;;1.65;;
65206;SDS011;58477;48.072;11.970;2024-02-14T11:09:11;2.97;;;1.33;;
65206;SDS011;58477;48.072;11.970;2024-02-14T11:11:38;3.30;;;1.83;;
65206;SDS011;58477;48.072;11.970;2024-02-14T11:14:03;2.33;;;1.42;;
65206;SDS011;58477;48.072;11.970;2024-02-14T11:16:30;1.77;;;1.40;;
65206;SDS011;58477;48.072;11.970;2024-02-14T11:19:11;2.13;;;1.58;;
65206;SDS011;58477;48.072;11.970;2024-02-14T11:21:41;2.47;;;1.77;;
65206;SDS011;58477;48.072;11.970;2024-02-14T11:24:11;2.40;;;1.80;;
65206;SDS011;58477;48.072;11.970;2024-02-14T11:26:49;3.58;;;1.70;;
65206;SDS011;58477;48.072;11.970;2024-02-14T11:29:16;2.78;;;2.00;;
65206;SDS011;58477;48.072;11.970;2024-02-14T11:31:45;3.00;;;1.50;;
65206;SDS011;58477;48.072;11.970;2024-02-14T11:34:11;2.17;;;1.67;;
65206;SDS011;58477;48.072;11.970;2024-02-14T11:36:38;3.88;;;1.65;;
65206;SDS011;58477;48.072;11.970;2024-02-14T11:39:06;1.50;;;1.40;;
65206;SDS011;58477;48.072;11.970;2024-02-14T11:41:35;2.17;;;1.80;;
65206;SDS011;58477;48.072;11.970;2024-02-14T11:44:01;3.10;;;1.77;;
65206;SDS011;58477;48.072;11.970;2024-02-14T11:46:31;1.95;;;1.70;;
65206;SDS011;58477;48.072;11.970;2024-02-14T11:48:58;4.82;;;1.67;;
65206;SDS011;58477;48.072;11.970;2024-02-14T11:51:26;3.70;;;2.08;;
65206;SDS011;58477;48.072;11.970;2024-02-14T11:53:53;1.92;;;1.35;;
65206;SDS011;58477;48.072;11.970;2024-02-14T11:56:20;2.33;;;2.05;;
65206;SDS011;58477;48.072;11.970;2024-02-14T11:58:47;2.65;;;1.60;;
65206;SDS011;58477;48.072;11.970;2024-02-14T12:01:16;2.40;;;1.40;;
65206;SDS011;58477;48.072;11.970;2024-02-14T12:03:43;1.52;;;1.40;;
65206;SDS011;58477;48.072;11.970;2024-02-14T12:06:09;5.90;;;1.77;;
65206;SDS011;58477;48.072;11.970;2024-02-14T12:08:35;3.60;;;1.73;;
65206;SDS011;58477;48.072;11.970;2024-02-14T12:11:01;2.45;;;1.70;;
65206;SDS011;58477;48.072;11.970;2024-02-14T12:13:27;1.65;;;1.48;;
65206;SDS011;58477;48.072;11.970;2024-02-14T12:15:57;1.92;;;1.40;;
65206;SDS011;58477;48.072;11.970;2024-02-14T12:18:23;4.18;;;1.55;;
65206;SDS011;58477;48.072;11.970;2024-02-14T12:20:48;2.28;;;1.77;;
65206;SDS011;58477;48.072;11.970;2024-02-14T12:23:16;3.03;;;1.70;;
65206;SDS011;58477;48.072;11.970;2024-02-14T12:25:43;5.60;;;1.40;;
65206;SDS011;58477;48.072;11.970;2024-02-14T12:28:15;2.53;;;1.65;;
65206;SDS011;58477;48.072;11.970;2024-02-14T12:30:46;1.30;;;1.10;;
65206;SDS011;58477;48.072;11.970;2024-02-14T12:33:14;1.40;;;1.30;;
65206;SDS011;58477;48.072;11.970;2024-02-14T12:35:49;1.52;;;1.35;;
65206;SDS011;58477;48.072;11.970;2024-02-14T12:38:16;2.00;;;1.30;;
65206;SDS011;58477;48.072;11.970;2024-02-14T12:40:43;1.63;;;1.30;;
65206;SDS011;58477;48.072;11.970;2024-02-14T12:43:12;1.23;;;1.10;;
65206;SDS011;58477;48.072;11.970;2024-02-14T12:45:39;1.40;;;1.30;;
65206;SDS011;58477;48.072;11.970;2024-02-14T12:48:06;1.80;;;1.38;;
65206;SDS011;58477;48.072;11.970;2024-02-14T12:50:33;2.80;;;1.27;;
65206;SDS011;58477;48.072;11.970;2024-02-14T12:53:00;1.50;;;1.20;;
65206;SDS011;58477;48.072;11.970;2024-02-14T12:55:26;2.92;;;1.55;;
65206;SDS011;58477;48.072;11.970;2024-02-14T12:57:54;1.17;;;1.10;;
65206;SDS011;58477;48.072;11.970;2024-02-14T13:00:20;2.13;;;1.15;;
65206;SDS011;58477;48.072;11.970;2024-02-14T13:02:47;3.58;;;1.38;;
65206;SDS011;58477;48.072;11.970;2024-02-14T13:05:13;4.47;;;1.25;;
65206;SDS011;58477;48.072;11.970;2024-02-14T13:07:38;1.88;;;1.40;;
65206;SDS011;58477;48.072;11.970;2024-02-14T13:10:04;1.52;;;1.23;;
65206;SDS011;58477;48.072;11.970;2024-02-14T13:12:30;1.67;;;1.15;;
65206;SDS011;58477;48.072;11.970;2024-02-14T13:14:55;1.75;;;1.35;;
65206;SDS011;58477;48.072;11.970;2024-02-14T13:17:21;2.15;;;1.27;;
65206;SDS011;58477;48.072;11.970;2024-02-14T13:19:48;4.22;;;1.70;;
65206;SDS011;58477;48.072;11.970;2024-02-14T13:22:14;1.73;;;1.48;;
65206;SDS011;58477;48.072;11.970;2024-02-14T13:24:41;1.73;;;1.40;;
65206;SDS011;58477;48.072;11.970;2024-02-14T13:27:07;2.05;;;1.48;;
65206;SDS011;58477;48.072;11.970;2024-02-14T13:29:33;2.80;;;1.67;;
65206;SDS011;58477;48.072;11.970;2024-02-14T13:31:58;2.50;;;1.30;;
65206;SDS011;58477;48.072;11.970;2024-02-14T13:34:26;0.73;;;0.73;;
65206;SDS011;58477;48.072;11.970;2024-02-14T13:36:51;3.60;;;0.68;;
65206;SDS011;58477;48.072;11.970;2024-02-14T13:39:17;0.50;;;0.50;;
65206;SDS011;58477;48.072;11.970;2024-02-14T13:41:43;0.50;;;0.40;;
65206;SDS011;58477;48.072;11.970;2024-02-14T13:44:09;0.82;;;0.55;;
65206;SDS011;58477;48.072;11.970;2024-02-14T13:46:35;2.95;;;0.60;;
65206;SDS011;58477;48.072;11.970;2024-02-14T13:49:01;0.70;;;0.50;;
65206;SDS011;58477;48.072;11.970;2024-02-14T13:51:26;0.60;;;0.60;;
65206;SDS011;58477;48.072;11.970;2024-02-14T13:53:52;3.20;;;0.70;;
65206;SDS011;58477;48.072;11.970;2024-02-14T13:56:18;0.68;;;0.68;;
65206;SDS011;58477;48.072;11.970;2024-02-14T13:58:46;0.50;;;0.50;;
65206;SDS011;58477;48.072;11.970;2024-02-14T14:01:12;1.02;;;0.60;;
65206;SDS011;58477;48.072;11.970;2024-02-14T14:03:37;1.25;;;0.80;;
65206;SDS011;58477;48.072;11.970;2024-02-14T14:06:03;0.77;;;0.57;;
65206;SDS011;58477;48.072;11.970;2024-02-14T14:08:31;0.68;;;0.60;;
65206;SDS011;58477;48.072;11.970;2024-02-14T14:10:57;1.00;;;0.80;;
65206;SDS011;58477;48.072;11.970;2024-02-14T14:13:22;0.60;;;0.60;;
65206;SDS011;58477;48.072;11.970;2024-02-14T14:15:48;0.57;;;0.50;;
65206;SDS011;58477;48.072;11.970;2024-02-14T14:18:13;0.50;;;0.50;;
65206;SDS011;58477;48.072;11.970;2024-02-14T14:20:38;1.00;;;0.47;;
65206;SDS011;58477;48.072;11.970;2024-02-14T14:23:04;0.50;;;0.50;;
65206;SDS011;58477;48.072;11.970;2024-02-14T14:25:34;0.47;;;0.47;;
65206;SDS011;58477;48.072;11.970;2024-02-14T14:28:00;0.43;;;0.40;;